Sacramento, California
Current Conditions -  °F | °C
As of 4:19 PM on Friday 31 Oct 2014 (Local Time) from KSAC Reporting Station
Light Rain Light Rain  
Wind Chill: 57°   Ceiling: 3700
Heat Index: 57°   Visibility: 9mi
Dew Point: 55°   Wind: 0mph
Humidity: 94%   Direction: NA
Pressure: 29.77"   Gusts: NA
Location:  38.58°N, 121.49°W
Report Text: KSAC 312319Z AUTO 00000KT 9SM -RA FEW030 BKN037 OVC060 14/13 A2977 RMK AO2 P0002 TSNO
Loading
Personal Weather Stations






























Interactive Weather Map
Tropical Storm Tracking
New forecast layout! Learn more

10-Day Weather Forecast

Advertisements
Track Severe Weather on mobile